Time;durP1;ratioP1;P1;durP2;ratioP2;P2;SDS_P1;SDS_P2;PMS_P1;PMS_P2;Temp;Humidity;BMP_temperature;BMP_pressure;BME280_temperature;BME280_humidity;BME280_pressure;Samples;Min_cycle;Max_cycle;Signal;HPM_P1;HPM_P2
2021/06/23 00:01:48;;;;;;;;;;;17.80;99.90;;;;;;5071222;28;19914;-72
2021/06/23 00:04:14;;;;;;;;;;;17.70;99.90;;;;;;5068035;28;19909;-71
2021/06/23 00:06:39;;;;;;;;;;;17.70;99.90;;;;;;5070125;28;19908;-70
2021/06/23 00:09:05;;;;;;;;;;;17.70;99.90;;;;;;5071371;28;19962;-71
2021/06/23 00:11:34;;;;;;;;;;;17.70;99.90;;;;;;5071121;28;19909;-71
2021/06/23 00:14:01;;;;;;;;;;;17.60;99.90;;;;;;5071458;28;20041;-72
2021/06/23 00:16:26;;;;;;;;;;;17.60;99.90;;;;;;5070667;28;19912;-71
2021/06/23 00:18:52;;;;;;;;;;;17.50;99.90;;;;;;5069891;28;20255;-71
2021/06/23 00:21:17;;;;;;;;;;;17.60;99.90;;;;;;5071232;28;19961;-72
2021/06/23 00:23:43;;;;;;;;;;;17.60;99.90;;;;;;5071318;28;20000;-71
2021/06/23 00:26:08;;;;;;;;;;;17.60;99.90;;;;;;5070157;28;19920;-71
2021/06/23 00:28:34;;;;;;;;;;;17.50;99.90;;;;;;5070917;28;19919;-70
2021/06/23 00:30:59;;;;;;;;;;;17.50;99.90;;;;;;5071079;28;20394;-71
2021/06/23 00:33:29;;;;;;;;;;;17.50;99.90;;;;;;5070993;28;20005;-71
2021/06/23 00:35:54;;;;;;;;;;;17.50;99.90;;;;;;5066448;28;19974;-71
2021/06/23 00:38:20;;;;;;;;;;;17.50;99.90;;;;;;5069614;28;20373;-71
2021/06/23 00:40:45;;;;;;;;;;;17.40;99.90;;;;;;5070963;28;20312;-71
2021/06/23 00:43:12;;;;;;;;;;;17.40;99.90;;;;;;5071057;28;19924;-71
2021/06/23 00:45:37;;;;;;;;;;;17.30;99.90;;;;;;5070538;28;19954;-71
2021/06/23 00:48:07;;;;;;;;;;;17.40;99.90;;;;;;5070480;28;20285;-71
2021/06/23 00:50:33;;;;;;;;;;;17.40;99.90;;;;;;5070896;28;19915;-71
2021/06/23 00:52:59;;;;;;;;;;;17.40;99.90;;;;;;5070989;28;19914;-71
2021/06/23 00:55:25;;;;;;;;;;;17.40;99.90;;;;;;5069205;28;19912;-71
2021/06/23 00:57:52;;;;;;;;;;;17.50;99.90;;;;;;5070096;28;19936;-71
2021/06/23 01:00:23;;;;;;;;;;;17.50;99.90;;;;;;5070744;28;19909;-70
2021/06/23 01:02:49;;;;;;;;;;;17.50;99.90;;;;;;5070618;28;19912;-71
2021/06/23 01:05:15;;;;;;;;;;;17.50;99.90;;;;;;5067134;28;20000;-69
2021/06/23 01:07:41;;;;;;;;;;;17.40;99.90;;;;;;5069732;28;19912;-71
2021/06/23 01:10:06;;;;;;;;;;;17.40;99.90;;;;;;5070651;28;20410;-72
2021/06/23 01:12:43;;;;;;;;;;;17.40;99.90;;;;;;5070602;28;19908;-71
2021/06/23 01:15:09;;;;;;;;;;;17.40;99.90;;;;;;5070570;28;19909;-71
2021/06/23 01:17:35;;;;;;;;;;;17.40;99.90;;;;;;5066787;28;19908;-71
2021/06/23 01:20:19;;;;;;;;;;;17.40;99.90;;;;;;5070685;28;19916;-71
2021/06/23 01:22:45;;;;;;;;;;;17.40;99.90;;;;;;5070843;28;19916;-71
2021/06/23 01:25:14;;;;;;;;;;;17.40;99.90;;;;;;5071645;28;19915;-70
2021/06/23 01:27:41;;;;;;;;;;;17.40;99.90;;;;;;5073707;28;19913;-71
2021/06/23 01:30:07;;;;;;;;;;;17.40;99.90;;;;;;5074409;28;19919;-71
2021/06/23 01:32:32;;;;;;;;;;;17.40;99.90;;;;;;5073906;28;19909;-72
2021/06/23 01:34:59;;;;;;;;;;;17.40;99.90;;;;;;5070349;28;19908;-71
2021/06/23 01:37:25;;;;;;;;;;;17.30;99.90;;;;;;5073256;28;19908;-71
2021/06/23 01:39:50;;;;;;;;;;;17.30;99.90;;;;;;5074132;28;20403;-71
2021/06/23 01:42:15;;;;;;;;;;;17.30;99.90;;;;;;5073985;28;19962;-71
2021/06/23 01:44:41;;;;;;;;;;;17.30;99.90;;;;;;5073900;28;19912;-71
2021/06/23 01:47:07;;;;;;;;;;;17.30;99.90;;;;;;5073002;28;20007;-71
2021/06/23 01:49:32;;;;;;;;;;;17.30;99.90;;;;;;5072031;28;20308;-72
2021/06/23 01:51:58;;;;;;;;;;;17.30;99.90;;;;;;5074006;28;19956;-71
2021/06/23 01:54:24;;;;;;;;;;;17.30;99.90;;;;;;5073671;28;19909;-71
2021/06/23 01:56:49;;;;;;;;;;;17.30;99.90;;;;;;5072841;28;19943;-71
2021/06/23 01:59:15;;;;;;;;;;;17.30;99.90;;;;;;5073911;28;20022;-71
2021/06/23 02:01:59;;;;;;;;;;;17.30;99.90;;;;;;5073469;28;19909;-71
2021/06/23 02:04:36;;;;;;;;;;;17.30;99.90;;;;;;5068630;28;19948;-71
2021/06/23 02:07:11;;;;;;;;;;;17.30;99.90;;;;;;5072399;28;20354;-71
2021/06/23 02:09:55;;;;;;;;;;;17.30;99.90;;;;;;5073252;28;20010;-71
2021/06/23 02:12:20;;;;;;;;;;;17.30;99.90;;;;;;5073457;28;19909;-70
2021/06/23 02:14:46;;;;;;;;;;;17.20;99.90;;;;;;5073159;28;19912;-72
2021/06/23 02:17:13;;;;;;;;;;;17.20;99.90;;;;;;5072350;28;19908;-71
2021/06/23 02:19:43;;;;;;;;;;;17.10;99.90;;;;;;5071799;28;19916;-71
2021/06/23 02:22:10;;;;;;;;;;;17.20;99.90;;;;;;5073231;28;19988;-71
2021/06/23 02:24:35;;;;;;;;;;;17.10;99.90;;;;;;5072997;28;19908;-71
2021/06/23 02:27:01;;;;;;;;;;;17.10;99.90;;;;;;5072052;28;19919;-71
2021/06/23 02:29:27;;;;;;;;;;;17.10;99.90;;;;;;5073222;28;20041;-70
2021/06/23 02:31:54;;;;;;;;;;;17.10;99.90;;;;;;5073045;28;20001;-71
2021/06/23 02:34:20;;;;;;;;;;;17.10;99.90;;;;;;5069573;28;19921;-71
2021/06/23 02:36:46;;;;;;;;;;;17.00;99.90;;;;;;5070629;28;20049;-71
2021/06/23 02:39:11;;;;;;;;;;;17.00;99.90;;;;;;5072645;28;19908;-71
2021/06/23 02:41:37;;;;;;;;;;;16.90;99.90;;;;;;5072595;28;19912;-71
2021/06/23 02:44:03;;;;;;;;;;;16.90;99.90;;;;;;5072639;28;19927;-71
2021/06/23 02:46:29;;;;;;;;;;;16.90;99.90;;;;;;5071851;28;19962;-71
2021/06/23 02:48:56;;;;;;;;;;;16.90;99.90;;;;;;5072316;28;19909;-71
2021/06/23 02:51:22;;;;;;;;;;;16.80;99.90;;;;;;5072534;28;20277;-71
2021/06/23 02:53:48;;;;;;;;;;;16.80;99.90;;;;;;5072471;28;19908;-71
2021/06/23 02:56:15;;;;;;;;;;;16.70;99.90;;;;;;5071580;28;20327;-71
2021/06/23 02:58:41;;;;;;;;;;;16.70;99.90;;;;;;5072356;28;19999;-71
2021/06/23 03:01:08;;;;;;;;;;;16.60;99.90;;;;;;5072439;28;20003;-71
2021/06/23 03:03:37;;;;;;;;;;;16.60;99.90;;;;;;5071997;28;19970;-71
2021/06/23 03:06:03;;;;;;;;;;;16.50;99.90;;;;;;5067590;28;19963;-71
2021/06/23 03:08:29;;;;;;;;;;;16.60;99.90;;;;;;5071949;28;19955;-71
2021/06/23 03:10:55;;;;;;;;;;;16.50;99.90;;;;;;5070692;28;20010;-71
2021/06/23 03:13:20;;;;;;;;;;;16.50;99.90;;;;;;5072443;28;19913;-71
2021/06/23 03:15:46;;;;;;;;;;;16.50;99.90;;;;;;5071194;28;19974;-71
2021/06/23 03:18:11;;;;;;;;;;;16.60;99.90;;;;;;5071760;28;19908;-71
2021/06/23 03:20:37;;;;;;;;;;;16.50;99.90;;;;;;5072039;28;19947;-71
2021/06/23 03:23:03;;;;;;;;;;;16.50;99.90;;;;;;5071891;28;19974;-71
2021/06/23 03:25:29;;;;;;;;;;;16.50;99.90;;;;;;5071445;28;19916;-71
2021/06/23 03:27:55;;;;;;;;;;;16.50;99.90;;;;;;5069445;28;19965;-71
2021/06/23 03:30:21;;;;;;;;;;;16.40;99.90;;;;;;5071936;28;20479;-71
2021/06/23 03:32:48;;;;;;;;;;;16.40;99.90;;;;;;5071485;28;19909;-71
2021/06/23 03:35:14;;;;;;;;;;;16.40;99.90;;;;;;5066845;28;20197;-71
2021/06/23 03:37:40;;;;;;;;;;;16.40;99.90;;;;;;5070617;28;20408;-71
2021/06/23 03:40:06;;;;;;;;;;;16.40;99.90;;;;;;5071631;28;19913;-71
2021/06/23 03:42:31;;;;;;;;;;;16.40;99.90;;;;;;5071522;28;19916;-71
2021/06/23 03:44:57;;;;;;;;;;;16.30;99.90;;;;;;5071666;28;20001;-71
2021/06/23 03:47:23;;;;;;;;;;;16.30;99.90;;;;;;5069972;28;19912;-71
2021/06/23 03:49:48;;;;;;;;;;;16.30;99.90;;;;;;5070177;28;19908;-71
2021/06/23 03:52:14;;;;;;;;;;;16.40;99.90;;;;;;5071368;28;19931;-71
2021/06/23 03:54:39;;;;;;;;;;;16.40;99.90;;;;;;5071549;28;20007;-71
2021/06/23 03:57:05;;;;;;;;;;;16.50;99.90;;;;;;5070570;28;20431;-71
2021/06/23 03:59:30;;;;;;;;;;;16.50;99.90;;;;;;5071215;28;19908;-70
2021/06/23 04:01:56;;;;;;;;;;;16.50;99.90;;;;;;5071220;28;19955;-71
2021/06/23 04:04:21;;;;;;;;;;;16.60;99.90;;;;;;5067521;28;20003;-71
2021/06/23 04:06:47;;;;;;;;;;;16.60;99.90;;;;;;5069892;28;19912;-71
2021/06/23 04:09:13;;;;;;;;;;;16.70;99.90;;;;;;5070898;28;19908;-71
2021/06/23 04:11:38;;;;;;;;;;;16.70;99.90;;;;;;5071012;28;19909;-71
2021/06/23 04:14:04;;;;;;;;;;;16.80;99.90;;;;;;5071020;28;19909;-71
2021/06/23 04:16:30;;;;;;;;;;;16.80;99.90;;;;;;5070330;28;20391;-71
2021/06/23 04:18:55;;;;;;;;;;;16.90;99.90;;;;;;5070597;28;19909;-71
2021/06/23 04:21:21;;;;;;;;;;;16.90;99.90;;;;;;5071059;28;19991;-71
2021/06/23 04:23:46;;;;;;;;;;;16.90;99.90;;;;;;5070763;28;19913;-71
2021/06/23 04:26:12;;;;;;;;;;;16.90;99.90;;;;;;5070150;28;19918;-71
2021/06/23 04:28:37;;;;;;;;;;;16.90;99.90;;;;;;5070830;28;19912;-71
2021/06/23 04:31:03;;;;;;;;;;;17.00;99.90;;;;;;5070840;28;19915;-71
2021/06/23 04:33:28;;;;;;;;;;;17.00;99.90;;;;;;5070638;28;19908;-71
2021/06/23 04:35:55;;;;;;;;;;;17.10;99.90;;;;;;5064838;28;19975;-71
2021/06/23 04:38:21;;;;;;;;;;;17.20;99.90;;;;;;5070592;28;19943;-71
2021/06/23 04:40:46;;;;;;;;;;;17.30;99.90;;;;;;5070769;28;19912;-71
2021/06/23 04:43:11;;;;;;;;;;;17.30;99.90;;;;;;5070760;28;19924;-71
2021/06/23 04:45:37;;;;;;;;;;;17.30;99.90;;;;;;5070300;28;20433;-71
2021/06/23 04:48:03;;;;;;;;;;;17.20;99.90;;;;;;5070006;28;20011;-71
2021/06/23 04:50:28;;;;;;;;;;;17.10;99.90;;;;;;5069341;28;20393;-71
2021/06/23 04:52:54;;;;;;;;;;;17.10;99.90;;;;;;5070481;28;20356;-70
2021/06/23 04:55:19;;;;;;;;;;;17.20;99.90;;;;;;5070547;28;19908;-71
2021/06/23 04:57:45;;;;;;;;;;;17.20;99.90;;;;;;5069781;28;20280;-71
2021/06/23 05:00:11;;;;;;;;;;;17.30;99.90;;;;;;5071932;28;19908;-71
2021/06/23 05:02:37;;;;;;;;;;;17.30;99.90;;;;;;5074470;28;19912;-71
2021/06/23 05:05:03;;;;;;;;;;;17.30;99.90;;;;;;5070823;28;19982;-71
2021/06/23 05:07:29;;;;;;;;;;;17.30;99.90;;;;;;5073159;28;19913;-71
2021/06/23 05:09:55;;;;;;;;;;;17.30;99.90;;;;;;5073179;28;19931;-71
2021/06/23 05:12:22;;;;;;;;;;;17.40;99.90;;;;;;5074431;28;20325;-71
2021/06/23 05:14:48;;;;;;;;;;;17.40;99.90;;;;;;5073229;28;19915;-71
2021/06/23 05:17:13;;;;;;;;;;;17.40;99.90;;;;;;5073659;28;19956;-71
2021/06/23 05:19:39;;;;;;;;;;;17.50;99.90;;;;;;5073914;28;19954;-71
2021/06/23 05:22:08;;;;;;;;;;;17.60;99.90;;;;;;5074089;28;19912;-71
2021/06/23 05:24:34;;;;;;;;;;;17.80;99.90;;;;;;5074122;28;20007;-71
2021/06/23 05:27:00;;;;;;;;;;;17.80;99.90;;;;;;5073304;28;20003;-71
2021/06/23 05:29:25;;;;;;;;;;;18.00;99.90;;;;;;5074094;28;19909;-71
2021/06/23 05:31:51;;;;;;;;;;;18.10;99.90;;;;;;5074139;28;19909;-71
2021/06/23 05:34:16;;;;;;;;;;;18.20;99.90;;;;;;5070198;28;19912;-72
2021/06/23 05:36:42;;;;;;;;;;;18.40;99.90;;;;;;5072795;28;19908;-71
2021/06/23 05:39:07;;;;;;;;;;;18.70;99.90;;;;;;5072632;28;19908;-71
2021/06/23 05:41:33;;;;;;;;;;;18.90;99.90;;;;;;5073952;28;19915;-70
2021/06/23 05:43:58;;;;;;;;;;;19.20;99.90;;;;;;5073818;28;19961;-72
2021/06/23 05:46:24;;;;;;;;;;;19.50;99.90;;;;;;5073110;28;19916;-72
2021/06/23 05:48:50;;;;;;;;;;;19.80;99.90;;;;;;5072446;28;19917;-72
2021/06/23 05:51:15;;;;;;;;;;;19.90;99.90;;;;;;5071055;28;20450;-71
2021/06/23 05:53:41;;;;;;;;;;;20.00;99.90;;;;;;5071742;28;19912;-71
2021/06/23 05:56:09;;;;;;;;;;;20.10;99.90;;;;;;5070893;28;20244;-71
2021/06/23 05:58:35;;;;;;;;;;;20.30;99.90;;;;;;5061968;28;19913;-72
2021/06/23 06:01:02;;;;;;;;;;;20.40;99.90;;;;;;5072104;28;20415;-72
2021/06/23 06:03:27;;;;;;;;;;;20.50;99.90;;;;;;5072071;28;20113;-72
2021/06/23 06:05:53;;;;;;;;;;;21.00;99.90;;;;;;5069352;28;20159;-72
2021/06/23 06:08:18;;;;;;;;;;;20.90;99.90;;;;;;5073182;28;20010;-72
2021/06/23 06:10:44;;;;;;;;;;;21.40;99.90;;;;;;5073191;28;19919;-72
2021/06/23 06:13:09;;;;;;;;;;;21.90;99.90;;;;;;5073596;28;19908;-72
2021/06/23 06:15:35;;;;;;;;;;;22.30;99.90;;;;;;5072911;28;19908;-72
2021/06/23 06:18:01;;;;;;;;;;;22.80;99.90;;;;;;5072524;28;19953;-72
2021/06/23 06:20:27;;;;;;;;;;;23.10;99.90;;;;;;5071665;28;19917;-72
2021/06/23 06:22:52;;;;;;;;;;;23.60;99.90;;;;;;5073210;28;20320;-72
2021/06/23 06:25:18;;;;;;;;;;;23.90;99.90;;;;;;5073015;28;19916;-71
2021/06/23 06:27:43;;;;;;;;;;;23.90;99.90;;;;;;5072322;28;19916;-72
2021/06/23 06:30:09;;;;;;;;;;;23.50;99.90;;;;;;5072957;28;19963;-72
2021/06/23 06:32:34;;;;;;;;;;;23.60;99.90;;;;;;5073075;28;19908;-72
2021/06/23 06:35:00;;;;;;;;;;;23.80;99.90;;;;;;5068761;28;19966;-72
2021/06/23 06:37:25;;;;;;;;;;;24.20;99.90;;;;;;5072119;28;19985;-72
2021/06/23 06:39:51;;;;;;;;;;;24.30;99.90;;;;;;5073068;28;19908;-73
2021/06/23 06:42:17;;;;;;;;;;;24.60;99.90;;;;;;5072890;28;19951;-72
2021/06/23 06:44:42;;;;;;;;;;;24.20;99.90;;;;;;5072799;28;20389;-73
2021/06/23 06:47:08;;;;;;;;;;;24.40;99.90;;;;;;5071731;28;19956;-72
2021/06/23 06:49:33;;;;;;;;;;;24.60;99.90;;;;;;5071886;28;19909;-72
2021/06/23 06:52:00;;;;;;;;;;;24.40;99.90;;;;;;5072699;28;19915;-72
2021/06/23 06:54:26;;;;;;;;;;;24.00;99.90;;;;;;5071323;28;19999;-73
2021/06/23 06:56:52;;;;;;;;;;;24.00;99.90;;;;;;5065110;28;19908;-72
2021/06/23 06:59:20;;;;;;;;;;;24.00;99.90;;;;;;5071954;28;19923;-73
2021/06/23 07:01:46;;;;;;;;;;;23.90;99.90;;;;;;5072182;28;20054;-73
2021/06/23 07:04:14;;;;;;;;;;;24.20;99.90;;;;;;5068678;28;19978;-73
2021/06/23 07:06:39;;;;;;;;;;;24.50;99.90;;;;;;5070945;28;19908;-72
2021/06/23 07:09:05;;;;;;;;;;;24.80;99.90;;;;;;5072261;28;19916;-71
2021/06/23 07:11:30;;;;;;;;;;;25.00;99.90;;;;;;5070755;28;19984;-73
2021/06/23 07:13:56;;;;;;;;;;;25.80;99.90;;;;;;5073106;28;19919;-73
2021/06/23 07:16:21;;;;;;;;;;;26.50;99.90;;;;;;5066343;28;19908;-73
2021/06/23 07:18:48;;;;;;;;;;;27.20;99.90;;;;;;5068566;28;19916;-73
2021/06/23 07:21:18;;;;;;;;;;;27.30;99.90;;;;;;5069213;28;19916;-73
2021/06/23 07:23:44;;;;;;;;;;;27.80;99.90;;;;;;5070298;28;20375;-73
2021/06/23 07:26:11;;;;;;;;;;;28.30;99.90;;;;;;5060625;28;20348;-72
2021/06/23 07:28:46;;;;;;;;;;;28.80;98.50;;;;;;5068721;28;19916;-72
2021/06/23 07:31:13;;;;;;;;;;;28.40;98.00;;;;;;5055156;28;20119;-71
2021/06/23 07:33:48;;;;;;;;;;;28.10;99.90;;;;;;5067328;28;20374;-72
2021/06/23 07:38:58;;;;;;;;;;;27.10;98.30;;;;;;5069647;28;19972;-72
2021/06/23 07:41:23;;;;;;;;;;;26.00;99.90;;;;;;5069977;28;19955;-72
2021/06/23 07:43:49;;;;;;;;;;;25.20;99.90;;;;;;5069500;28;19917;-72
2021/06/23 07:46:15;;;;;;;;;;;24.70;99.90;;;;;;5055758;28;19913;-71
2021/06/23 07:48:41;;;;;;;;;;;24.20;99.90;;;;;;5052103;28;19922;-72
2021/06/23 07:51:10;;;;;;;;;;;23.90;99.90;;;;;;5055497;28;19913;-72
2021/06/23 07:54:06;;;;;;;;;;;24.20;99.90;;;;;;5067243;28;19908;-72
2021/06/23 08:10:06;;;;;;;;;;;25.80;99.90;;;;;;5056712;28;19916;-72
2021/06/23 08:12:42;;;;;;;;;;;26.20;99.20;;;;;;5065838;28;19908;-71
2021/06/23 08:15:08;;;;;;;;;;;26.30;99.90;;;;;;5074360;28;19918;-72
2021/06/23 08:17:33;;;;;;;;;;;26.20;99.90;;;;;;5061144;28;20003;-73
2021/06/23 08:19:58;;;;;;;;;;;26.10;99.90;;;;;;5063948;28;19913;-71
2021/06/23 08:22:24;;;;;;;;;;;25.90;99.50;;;;;;5070124;28;20059;-72
2021/06/23 08:24:50;;;;;;;;;;;25.70;99.90;;;;;;5069697;28;19913;-72
2021/06/23 08:27:15;;;;;;;;;;;25.50;99.90;;;;;;5057926;28;19919;-72
2021/06/23 08:29:41;;;;;;;;;;;25.30;99.90;;;;;;5066390;28;19912;-72
2021/06/23 08:32:07;;;;;;;;;;;25.10;99.90;;;;;;5064111;28;20341;-73
2021/06/23 08:34:32;;;;;;;;;;;25.00;99.90;;;;;;5065969;28;19935;-72
2021/06/23 08:36:58;;;;;;;;;;;24.70;99.90;;;;;;5067834;28;19916;-72
2021/06/23 08:39:23;;;;;;;;;;;24.40;99.90;;;;;;5064651;28;19913;-72
2021/06/23 08:41:49;;;;;;;;;;;24.30;99.90;;;;;;5060514;28;20366;-74
2021/06/23 08:44:14;;;;;;;;;;;24.20;99.90;;;;;;5064536;28;20522;-73
2021/06/23 08:46:40;;;;;;;;;;;24.10;99.90;;;;;;5073378;28;19962;-72
2021/06/23 08:49:07;;;;;;;;;;;23.90;99.90;;;;;;5065301;28;19955;-72
2021/06/23 08:51:34;;;;;;;;;;;23.70;99.90;;;;;;5068838;28;20433;-73
2021/06/23 08:53:59;;;;;;;;;;;23.60;99.90;;;;;;5069546;28;20013;-71
2021/06/23 08:56:25;;;;;;;;;;;23.50;99.90;;;;;;5059088;28;20007;-73
2021/06/23 08:58:50;;;;;;;;;;;23.50;99.90;;;;;;5054865;28;19909;-73
2021/06/23 09:01:16;;;;;;;;;;;23.50;99.90;;;;;;5069864;28;19919;-73
2021/06/23 09:04:08;;;;;;;;;;;23.50;99.90;;;;;;5065136;28;19916;-73
2021/06/23 09:06:48;;;;;;;;;;;23.60;99.90;;;;;;5067942;28;19909;-72
2021/06/23 09:09:18;;;;;;;;;;;24.00;99.90;;;;;;5064422;28;19912;-72
2021/06/23 09:11:44;;;;;;;;;;;24.70;99.90;;;;;;5069925;28;19909;-71
2021/06/23 09:14:13;;;;;;;;;;;25.50;99.90;;;;;;5068784;28;19916;-72
2021/06/23 09:16:57;;;;;;;;;;;26.00;99.90;;;;;;5067242;28;19912;-72
2021/06/23 09:19:26;;;;;;;;;;;26.30;99.10;;;;;;5070239;28;19908;-72
2021/06/23 09:21:52;;;;;;;;;;;26.40;98.00;;;;;;5065479;28;19909;-71
2021/06/23 09:24:17;;;;;;;;;;;26.20;98.10;;;;;;5086836;28;19908;-72
2021/06/23 09:26:43;;;;;;;;;;;26.00;99.70;;;;;;5059365;28;19995;-72
2021/06/23 09:29:08;;;;;;;;;;;25.70;99.80;;;;;;5068620;28;19909;-71
2021/06/23 09:31:54;;;;;;;;;;;25.60;99.90;;;;;;5061927;28;19916;-72
2021/06/23 09:34:42;;;;;;;;;;;25.70;99.90;;;;;;5059600;28;19917;-72
2021/06/23 09:37:26;;;;;;;;;;;26.20;98.20;;;;;;5065481;28;20366;-73
2021/06/23 09:40:08;;;;;;;;;;;27.20;99.90;;;;;;5062533;28;19912;-72
2021/06/23 09:42:36;;;;;;;;;;;27.90;98.10;;;;;;5076540;28;19963;-72
2021/06/23 09:45:05;;;;;;;;;;;28.60;98.40;;;;;;5070165;28;19909;-72
2021/06/23 09:47:30;;;;;;;;;;;29.00;96.60;;;;;;5072688;28;20017;-72
2021/06/23 09:49:55;;;;;;;;;;;28.90;95.60;;;;;;5069597;28;20307;-72
2021/06/23 09:52:21;;;;;;;;;;;29.00;96.90;;;;;;5074303;28;19908;-72
2021/06/23 09:54:48;;;;;;;;;;;29.30;94.00;;;;;;5073477;28;19996;-72
2021/06/23 09:57:14;;;;;;;;;;;29.40;97.10;;;;;;5067647;28;19912;-72
2021/06/23 09:59:42;;;;;;;;;;;29.50;96.00;;;;;;5059894;28;19908;-71
2021/06/23 10:02:19;;;;;;;;;;;29.40;94.50;;;;;;5067880;28;20421;-72
2021/06/23 10:04:45;;;;;;;;;;;29.40;93.70;;;;;;5057686;28;20300;-75
2021/06/23 10:07:10;;;;;;;;;;;29.80;95.10;;;;;;5064600;28;19912;-71
2021/06/23 10:09:36;;;;;;;;;;;29.80;92.10;;;;;;5069233;28;19909;-72
2021/06/23 10:12:06;;;;;;;;;;;29.90;95.20;;;;;;5071456;28;19905;-72
2021/06/23 10:14:34;;;;;;;;;;;30.10;95.00;;;;;;5072978;28;19915;-72
2021/06/23 10:17:01;;;;;;;;;;;30.50;94.10;;;;;;5070042;28;20281;-73
2021/06/23 10:19:27;;;;;;;;;;;30.80;95.80;;;;;;5071494;28;20366;-72
2021/06/23 10:21:53;;;;;;;;;;;31.00;90.20;;;;;;5072623;28;19940;-72
2021/06/23 10:24:19;;;;;;;;;;;30.50;93.00;;;;;;5070860;28;19944;-71
2021/06/23 10:26:47;;;;;;;;;;;30.60;93.60;;;;;;5060916;28;19951;-71
2021/06/23 10:29:13;;;;;;;;;;;30.90;90.80;;;;;;5065524;28;20293;-72
2021/06/23 10:31:40;;;;;;;;;;;30.80;91.20;;;;;;5072803;28;20368;-71
2021/06/23 10:34:07;;;;;;;;;;;30.30;87.40;;;;;;5071796;28;19963;-71
2021/06/23 10:36:33;;;;;;;;;;;29.70;92.10;;;;;;5067626;28;19975;-72
2021/06/23 10:38:59;;;;;;;;;;;29.10;91.20;;;;;;5060547;28;19921;-71
2021/06/23 10:41:24;;;;;;;;;;;28.60;91.90;;;;;;5069326;28;19933;-71
2021/06/23 10:44:10;;;;;;;;;;;28.30;90.80;;;;;;5062507;28;20069;-73
2021/06/23 10:46:39;;;;;;;;;;;28.40;92.00;;;;;;5068813;28;19930;-71
2021/06/23 10:49:04;;;;;;;;;;;28.60;92.60;;;;;;5070672;28;20508;-73
2021/06/23 10:51:30;;;;;;;;;;;28.80;90.80;;;;;;5071262;28;19995;-71
2021/06/23 10:53:55;;;;;;;;;;;28.50;92.90;;;;;;5066902;28;19908;-71
2021/06/23 10:56:53;;;;;;;;;;;28.50;90.00;;;;;;5061145;28;19908;-71
2021/06/23 10:59:31;;;;;;;;;;;28.70;94.10;;;;;;5060359;28;20365;-72
2021/06/23 11:02:15;;;;;;;;;;;29.10;89.70;;;;;;5064069;28;19915;-73
2021/06/23 11:05:03;;;;;;;;;;;29.60;92.30;;;;;;5068245;28;19912;-75
2021/06/23 11:07:39;;;;;;;;;;;30.10;88.40;;;;;;5071223;28;19963;-72
2021/06/23 11:10:17;;;;;;;;;;;30.20;89.80;;;;;;5067911;28;19995;-71
2021/06/23 11:12:47;;;;;;;;;;;30.10;90.50;;;;;;5071526;28;19948;-71
2021/06/23 11:15:17;;;;;;;;;;;30.50;88.90;;;;;;5070825;28;19908;-72
2021/06/23 11:17:43;;;;;;;;;;;30.90;92.10;;;;;;5065116;28;19979;-72
2021/06/23 11:20:21;;;;;;;;;;;31.20;84.40;;;;;;5065683;28;19908;-71
2021/06/23 11:22:47;;;;;;;;;;;31.20;86.40;;;;;;5061824;28;20373;-71
2021/06/23 11:25:33;;;;;;;;;;;31.20;88.40;;;;;;5059558;28;20309;-72
2021/06/23 11:28:12;;;;;;;;;;;31.00;78.90;;;;;;5066190;28;19959;-74
2021/06/23 11:30:50;;;;;;;;;;;30.90;78.50;;;;;;5066274;28;19909;-71
2021/06/23 11:33:27;;;;;;;;;;;30.60;75.80;;;;;;5058955;28;19912;-72
2021/06/23 11:35:53;;;;;;;;;;;30.70;81.90;;;;;;5059908;28;19912;-71
2021/06/23 11:38:19;;;;;;;;;;;30.70;78.20;;;;;;5065198;28;19909;-73
2021/06/23 11:40:45;;;;;;;;;;;30.70;79.50;;;;;;5054534;28;19920;-71
2021/06/23 11:43:10;;;;;;;;;;;30.80;86.30;;;;;;5084514;28;20446;-71
2021/06/23 11:45:36;;;;;;;;;;;31.10;77.30;;;;;;5064934;28;19913;-72
2021/06/23 11:48:01;;;;;;;;;;;31.20;81.30;;;;;;5070684;28;19913;-72
2021/06/23 11:50:27;;;;;;;;;;;31.50;80.10;;;;;;5071367;28;19961;-71
2021/06/23 11:52:52;;;;;;;;;;;31.70;81.30;;;;;;5071408;28;20007;-71
2021/06/23 11:55:24;;;;;;;;;;;31.70;77.50;;;;;;5071361;28;20328;-71
2021/06/23 11:57:57;;;;;;;;;;;31.70;75.20;;;;;;5070534;28;19908;-73
2021/06/23 12:00:22;;;;;;;;;;;31.60;76.10;;;;;;5069358;28;20352;-72
2021/06/23 12:02:49;;;;;;;;;;;31.50;73.00;;;;;;5070923;28;19955;-72
2021/06/23 12:05:14;;;;;;;;;;;31.50;72.40;;;;;;5066222;28;19909;-72
2021/06/23 12:07:40;;;;;;;;;;;31.20;70.60;;;;;;5070190;28;19912;-72
2021/06/23 12:10:06;;;;;;;;;;;31.10;70.80;;;;;;5070983;28;19948;-71
2021/06/23 12:12:32;;;;;;;;;;;31.10;74.30;;;;;;5070771;28;19908;-71
2021/06/23 12:14:57;;;;;;;;;;;31.20;69.60;;;;;;5067950;28;19912;-71
2021/06/23 12:17:23;;;;;;;;;;;31.40;78.50;;;;;;5066235;28;19995;-71
2021/06/23 12:19:52;;;;;;;;;;;31.30;70.10;;;;;;5070571;28;19954;-72
2021/06/23 12:22:17;;;;;;;;;;;31.20;71.90;;;;;;5066875;28;20369;-71
2021/06/23 12:24:43;;;;;;;;;;;30.80;70.00;;;;;;5068967;28;19965;-72
2021/06/23 12:27:08;;;;;;;;;;;30.50;72.40;;;;;;5059197;28;19908;-75
2021/06/23 12:29:35;;;;;;;;;;;30.40;72.20;;;;;;5070103;28;19908;-71
2021/06/23 12:32:02;;;;;;;;;;;30.40;78.00;;;;;;5070267;28;19918;-73
2021/06/23 12:34:28;;;;;;;;;;;30.30;71.50;;;;;;5075413;28;20421;-72
2021/06/23 12:36:54;;;;;;;;;;;30.30;73.10;;;;;;5067580;28;19934;-72
2021/06/23 12:39:20;;;;;;;;;;;30.50;75.90;;;;;;5072068;28;19909;-74
2021/06/23 12:41:45;;;;;;;;;;;30.60;82.30;;;;;;5063283;28;19959;-72
2021/06/23 12:44:11;;;;;;;;;;;31.00;74.40;;;;;;5052315;28;19958;-72
2021/06/23 12:46:37;;;;;;;;;;;30.60;75.50;;;;;;5086615;28;19919;-72
2021/06/23 12:49:02;;;;;;;;;;;30.30;73.00;;;;;;5070443;28;19913;-74
2021/06/23 12:51:28;;;;;;;;;;;30.00;72.90;;;;;;5069320;28;20007;-71
2021/06/23 12:53:53;;;;;;;;;;;29.50;76.90;;;;;;5076090;28;19915;-73
2021/06/23 12:56:19;;;;;;;;;;;29.30;78.90;;;;;;5060306;28;19909;-71
2021/06/23 12:58:44;;;;;;;;;;;28.90;76.50;;;;;;5062513;28;20460;-73
2021/06/23 13:01:10;;;;;;;;;;;28.70;77.10;;;;;;5065475;28;19931;-71
2021/06/23 13:03:35;;;;;;;;;;;28.70;76.80;;;;;;5069059;28;20330;-75
2021/06/23 13:06:03;;;;;;;;;;;28.70;77.30;;;;;;5062556;28;20247;-72
2021/06/23 13:08:29;;;;;;;;;;;28.80;78.70;;;;;;5066545;28;19916;-71
2021/06/23 13:10:55;;;;;;;;;;;28.90;81.10;;;;;;5064813;28;19920;-71
2021/06/23 13:13:20;;;;;;;;;;;29.20;78.80;;;;;;5070353;28;20254;-71
2021/06/23 13:15:46;;;;;;;;;;;29.50;77.40;;;;;;5065000;28;20413;-71
2021/06/23 13:18:12;;;;;;;;;;;29.70;78.60;;;;;;5066508;28;19912;-72
2021/06/23 13:20:39;;;;;;;;;;;29.80;81.80;;;;;;5071753;28;19908;-71
2021/06/23 13:23:04;;;;;;;;;;;30.00;76.00;;;;;;5074227;28;19908;-71
2021/06/23 13:25:30;;;;;;;;;;;30.10;75.50;;;;;;5067281;28;19919;-75
2021/06/23 13:27:56;;;;;;;;;;;30.20;74.70;;;;;;5072494;28;19951;-71
2021/06/23 13:30:21;;;;;;;;;;;30.30;78.00;;;;;;5070222;28;19915;-71
2021/06/23 13:32:47;;;;;;;;;;;29.90;79.90;;;;;;5073276;28;20007;-71
2021/06/23 13:35:13;;;;;;;;;;;28.90;83.70;;;;;;5067894;28;19909;-71
2021/06/23 13:37:39;;;;;;;;;;;28.30;84.90;;;;;;5068287;28;19909;-71
2021/06/23 13:40:05;;;;;;;;;;;27.50;85.80;;;;;;5066508;28;20030;-71
2021/06/23 13:42:31;;;;;;;;;;;26.90;88.40;;;;;;5071388;28;19920;-71
2021/06/23 13:44:56;;;;;;;;;;;26.60;88.90;;;;;;5063930;28;19968;-75
2021/06/23 13:47:22;;;;;;;;;;;26.60;90.30;;;;;;5071848;28;19913;-71
2021/06/23 13:49:48;;;;;;;;;;;26.50;89.80;;;;;;5069124;28;19975;-71
2021/06/23 13:52:14;;;;;;;;;;;26.40;90.30;;;;;;5067003;28;20191;-71
2021/06/23 13:54:40;;;;;;;;;;;26.50;90.10;;;;;;5062872;28;20017;-71
2021/06/23 13:57:08;;;;;;;;;;;26.60;90.40;;;;;;5069966;28;19915;-71
2021/06/23 13:59:34;;;;;;;;;;;26.80;90.00;;;;;;5065619;28;20293;-71
2021/06/23 14:01:59;;;;;;;;;;;27.00;90.40;;;;;;5063990;28;19912;-71
2021/06/23 14:04:25;;;;;;;;;;;27.20;90.80;;;;;;5066886;28;19932;-72
2021/06/23 14:06:50;;;;;;;;;;;27.30;89.80;;;;;;5067118;28;19934;-72
2021/06/23 14:09:16;;;;;;;;;;;27.40;87.60;;;;;;5057150;28;19920;-71
2021/06/23 14:11:41;;;;;;;;;;;27.40;90.20;;;;;;5068211;28;19999;-71
2021/06/23 14:14:07;;;;;;;;;;;27.60;90.40;;;;;;5071737;28;19951;-75
2021/06/23 14:16:32;;;;;;;;;;;27.50;88.40;;;;;;5071288;28;19940;-71
2021/06/23 14:18:58;;;;;;;;;;;27.40;89.10;;;;;;5053582;28;19916;-71
2021/06/23 14:21:23;;;;;;;;;;;27.00;89.30;;;;;;5061392;28;19912;-71
2021/06/23 14:23:49;;;;;;;;;;;26.90;87.80;;;;;;5066794;28;19934;-71
2021/06/23 14:26:14;;;;;;;;;;;26.70;86.30;;;;;;5065545;28;19917;-70
2021/06/23 14:28:40;;;;;;;;;;;26.30;87.60;;;;;;5063074;28;19922;-71
2021/06/23 14:31:05;;;;;;;;;;;26.20;86.90;;;;;;5071096;28;20290;-73
2021/06/23 14:33:31;;;;;;;;;;;26.20;87.80;;;;;;5070752;28;19916;-71